Shannon, Georgia
Current Conditions -  °F | °C
As of 12:53 PM on Thursday 27 Nov 2014 (Local Time) from KRMG Reporting Station
Overcast Overcast  
Wind Chill: 37°   Ceiling: 3800
Heat Index: 43°   Visibility: 10mi
Dew Point: 28°   Wind: 12mph
Humidity: 56%   Direction: 320°NW
Pressure: 30.33"   Gusts: NA
Location:  34.34°N, 85.07°W
Report Text: KRMG 271753Z AUTO 32010KT 10SM OVC038 06/M02 A3033 RMK AO2 SLP267 T00611022 10072 20044 50017
Loading
Personal Weather Stations






























Interactive Weather Map New forecast layout! Learn more

10-Day Weather Forecast

Advertisements
Track Severe Weather on mobile